EWG7NQ EDDL-LIPZ
Flight info
| Callsign | EWG7NQ |
|---|---|
| Flight time | 1h 14m |
| Altitude | 37000 |
| Route | DODEN7Z/05R DODEN Y852 TUSUK DCT ULNOK L607 ABUKA DCT BATUB M738 NATAG DCT LORLO DCT UNTAD DCT ADOSA L612 ALBET |
| Aircraft | A21N/M-SDE3FGHIRWY/LB1 |
Departure
| Time | 2026-05-06 09:55 |
|---|---|
| Airport | Düsseldorf Airport (EDDL) |
Arrival
| Time | 2026-05-06 11:09 |
|---|---|
| Airport | Venice Marco Polo Airport (LIPZ) |
| Time | Latitude | Longitude | Altitude | Speed | Heading |
|---|---|---|---|---|---|
| 2026-05-06 09:20 | 51.28155 | 6.76732 | 154 ft | 0 kts | 275° |
| 2026-05-06 09:43 | 51.28155 | 6.76741 | 154 ft | 2 kts | 275° |
| 2026-05-06 09:43 | 51.28154 | 6.76765 | 154 ft | 2 kts | 275° |
| 2026-05-06 09:44 | 51.28149 | 6.76788 | 154 ft | 2 kts | 305° |
| 2026-05-06 09:44 | 51.28139 | 6.76805 | 154 ft | 2 kts | 326° |
| 2026-05-06 09:44 | 51.28126 | 6.76815 | 154 ft | 2 kts | 349° |
| 2026-05-06 09:44 | 51.28110 | 6.76816 | 154 ft | 2 kts | 12° |
| 2026-05-06 09:45 | 51.28104 | 6.76813 | 154 ft | 1 kts | 22° |
| 2026-05-06 09:45 | 51.28101 | 6.76811 | 154 ft | 0 kts | 20° |
| 2026-05-06 09:49 | 51.28104 | 6.76813 | 154 ft | 1 kts | 19° |
| 2026-05-06 09:49 | 51.28117 | 6.76819 | 154 ft | 2 kts | 17° |
| 2026-05-06 09:49 | 51.28142 | 6.76828 | 154 ft | 4 kts | 10° |
| 2026-05-06 09:50 | 51.28173 | 6.76836 | 154 ft | 4 kts | 7° |
| 2026-05-06 09:50 | 51.28209 | 6.76843 | 154 ft | 5 kts | 7° |
| 2026-05-06 09:50 | 51.28254 | 6.76848 | 154 ft | 7 kts | 350° |
| 2026-05-06 09:50 | 51.28301 | 6.76812 | 154 ft | 7 kts | 327° |
| 2026-05-06 09:51 | 51.28347 | 6.76757 | 154 ft | 8 kts | 321° |
| 2026-05-06 09:51 | 51.28397 | 6.76694 | 154 ft | 8 kts | 322° |
| 2026-05-06 09:51 | 51.28408 | 6.76613 | 154 ft | 8 kts | 246° |
| 2026-05-06 09:51 | 51.28371 | 6.76530 | 154 ft | 9 kts | 233° |
| 2026-05-06 09:52 | 51.28328 | 6.76438 | 154 ft | 10 kts | 233° |
| 2026-05-06 09:52 | 51.28277 | 6.76330 | 154 ft | 13 kts | 232° |
| 2026-05-06 09:52 | 51.28219 | 6.76208 | 154 ft | 14 kts | 233° |
| 2026-05-06 09:52 | 51.28157 | 6.76077 | 154 ft | 15 kts | 232° |
| 2026-05-06 09:53 | 51.28093 | 6.75942 | 154 ft | 16 kts | 232° |
| 2026-05-06 09:53 | 51.28017 | 6.75785 | 154 ft | 18 kts | 233° |
| 2026-05-06 09:53 | 51.27940 | 6.75623 | 154 ft | 18 kts | 233° |
| 2026-05-06 09:53 | 51.27865 | 6.75467 | 154 ft | 11 kts | 232° |
| 2026-05-06 09:54 | 51.27846 | 6.75366 | 154 ft | 10 kts | 296° |
| 2026-05-06 09:54 | 51.27908 | 6.75298 | 154 ft | 11 kts | 333° |
| 2026-05-06 09:54 | 51.27982 | 6.75271 | 154 ft | 11 kts | 25° |
| 2026-05-06 09:54 | 51.28041 | 6.75370 | 154 ft | 17 kts | 52° |
| 2026-05-06 09:55 | 51.28275 | 6.75856 | 154 ft | 95 kts | 53° |
| 2026-05-06 09:55 | 51.28821 | 6.77004 | 155 ft | 162 kts | 53° |
| 2026-05-06 09:55 | 51.29496 | 6.78529 | 749 ft | 172 kts | 54° |
| 2026-05-06 09:55 | 51.30179 | 6.80116 | 1547 ft | 177 kts | 54° |
| 2026-05-06 09:56 | 51.30907 | 6.81756 | 2168 ft | 191 kts | 53° |
| 2026-05-06 09:56 | 51.31726 | 6.83514 | 2820 ft | 204 kts | 52° |
| 2026-05-06 09:56 | 51.32630 | 6.85369 | 3367 ft | 223 kts | 51° |
| 2026-05-06 09:56 | 51.33619 | 6.87381 | 3959 ft | 242 kts | 52° |
| 2026-05-06 09:57 | 51.34666 | 6.89600 | 4570 ft | 260 kts | 54° |
| 2026-05-06 09:57 | 51.35360 | 6.92317 | 5343 ft | 272 kts | 85° |
| 2026-05-06 09:57 | 51.35186 | 6.95311 | 6258 ft | 277 kts | 101° |
| 2026-05-06 09:57 | 51.34803 | 6.98334 | 7198 ft | 279 kts | 102° |
| 2026-05-06 09:58 | 51.34441 | 7.01364 | 8047 ft | 283 kts | 101° |
| 2026-05-06 09:58 | 51.34110 | 7.04455 | 8860 ft | 287 kts | 100° |
| 2026-05-06 09:58 | 51.33787 | 7.07609 | 9660 ft | 290 kts | 99° |
| 2026-05-06 09:58 | 51.33468 | 7.10759 | 10403 ft | 295 kts | 99° |
| 2026-05-06 09:59 | 51.33128 | 7.14091 | 10932 ft | 310 kts | 101° |
| 2026-05-06 09:59 | 51.32443 | 7.17409 | 11365 ft | 327 kts | 118° |
| 2026-05-06 09:59 | 51.31124 | 7.20404 | 11956 ft | 336 kts | 135° |
| 2026-05-06 09:59 | 51.29467 | 7.23069 | 12816 ft | 340 kts | 137° |
| 2026-05-06 10:00 | 51.27775 | 7.25711 | 13625 ft | 342 kts | 137° |
| 2026-05-06 10:00 | 51.26100 | 7.28322 | 14359 ft | 345 kts | 138° |
| 2026-05-06 10:00 | 51.24377 | 7.31016 | 15064 ft | 349 kts | 137° |
| 2026-05-06 10:00 | 51.22650 | 7.33725 | 15758 ft | 353 kts | 137° |
| 2026-05-06 10:01 | 51.20896 | 7.36479 | 16452 ft | 356 kts | 137° |
| 2026-05-06 10:01 | 51.19142 | 7.39238 | 17093 ft | 360 kts | 137° |
| 2026-05-06 10:01 | 51.17363 | 7.42033 | 17732 ft | 364 kts | 137° |
| 2026-05-06 10:01 | 51.15536 | 7.44895 | 18358 ft | 368 kts | 137° |
| 2026-05-06 10:02 | 51.13705 | 7.47718 | 18991 ft | 371 kts | 137° |
| 2026-05-06 10:02 | 51.11843 | 7.50561 | 19636 ft | 374 kts | 137° |
| 2026-05-06 10:02 | 51.09969 | 7.53418 | 20284 ft | 376 kts | 137° |
| 2026-05-06 10:02 | 51.08090 | 7.56282 | 20918 ft | 378 kts | 137° |
| 2026-05-06 10:03 | 51.06181 | 7.59191 | 21539 ft | 380 kts | 137° |
| 2026-05-06 10:03 | 51.04289 | 7.62074 | 22146 ft | 382 kts | 137° |
| 2026-05-06 10:03 | 51.02380 | 7.64977 | 22729 ft | 384 kts | 137° |
| 2026-05-06 10:03 | 51.00426 | 7.67943 | 23299 ft | 387 kts | 137° |
| 2026-05-06 10:04 | 50.98490 | 7.70822 | 23851 ft | 388 kts | 139° |
| 2026-05-06 10:04 | 50.96401 | 7.73571 | 24388 ft | 390 kts | 143° |
| 2026-05-06 10:04 | 50.94185 | 7.76081 | 24866 ft | 393 kts | 148° |
| 2026-05-06 10:04 | 50.91889 | 7.78376 | 25321 ft | 396 kts | 149° |
| 2026-05-06 10:05 | 50.89547 | 7.80681 | 25769 ft | 399 kts | 149° |
| 2026-05-06 10:05 | 50.87206 | 7.82979 | 26198 ft | 401 kts | 149° |
| 2026-05-06 10:05 | 50.84825 | 7.85317 | 26625 ft | 404 kts | 149° |
| 2026-05-06 10:05 | 50.82424 | 7.87674 | 27036 ft | 407 kts | 149° |
| 2026-05-06 10:06 | 50.80028 | 7.90024 | 27437 ft | 409 kts | 149° |
| 2026-05-06 10:06 | 50.77602 | 7.92401 | 27822 ft | 412 kts | 149° |
| 2026-05-06 10:06 | 50.75151 | 7.94799 | 28190 ft | 414 kts | 149° |
| 2026-05-06 10:06 | 50.72716 | 7.97179 | 28547 ft | 417 kts | 149° |
| 2026-05-06 10:07 | 50.70258 | 7.99576 | 28907 ft | 419 kts | 149° |
| 2026-05-06 10:07 | 50.67765 | 8.02004 | 29285 ft | 420 kts | 149° |
| 2026-05-06 10:07 | 50.65286 | 8.04388 | 29659 ft | 421 kts | 151° |
| 2026-05-06 10:07 | 50.62703 | 8.06452 | 30027 ft | 421 kts | 156° |
| 2026-05-06 10:08 | 50.59947 | 8.08126 | 30386 ft | 422 kts | 162° |
| 2026-05-06 10:08 | 50.57121 | 8.09340 | 30748 ft | 422 kts | 168° |
| 2026-05-06 10:08 | 50.54257 | 8.10093 | 31096 ft | 421 kts | 174° |
| 2026-05-06 10:08 | 50.51343 | 8.10526 | 31498 ft | 419 kts | 175° |
| 2026-05-06 10:09 | 50.48457 | 8.10907 | 31864 ft | 418 kts | 176° |
| 2026-05-06 10:09 | 50.45603 | 8.11277 | 32173 ft | 417 kts | 176° |
| 2026-05-06 10:09 | 50.42716 | 8.11648 | 32461 ft | 417 kts | 176° |
| 2026-05-06 10:09 | 50.39818 | 8.12024 | 32713 ft | 417 kts | 176° |
| 2026-05-06 10:10 | 50.36930 | 8.12581 | 32942 ft | 418 kts | 170° |
| 2026-05-06 10:10 | 50.34153 | 8.13788 | 33151 ft | 421 kts | 162° |
| 2026-05-06 10:10 | 50.31478 | 8.15585 | 33338 ft | 423 kts | 157° |
| 2026-05-06 10:10 | 50.28824 | 8.17599 | 33540 ft | 424 kts | 156° |
| 2026-05-06 10:11 | 50.26194 | 8.19607 | 33721 ft | 424 kts | 157° |
| 2026-05-06 10:11 | 50.23540 | 8.21631 | 33896 ft | 425 kts | 157° |
| 2026-05-06 10:11 | 50.20902 | 8.23630 | 34083 ft | 425 kts | 157° |
| 2026-05-06 10:11 | 50.18236 | 8.25644 | 34270 ft | 425 kts | 157° |
| 2026-05-06 10:12 | 50.15573 | 8.27651 | 34463 ft | 426 kts | 157° |
| 2026-05-06 10:12 | 50.12918 | 8.29646 | 34664 ft | 426 kts | 157° |
| 2026-05-06 10:12 | 50.10263 | 8.31640 | 34864 ft | 426 kts | 157° |
| 2026-05-06 10:12 | 50.07585 | 8.33649 | 35045 ft | 426 kts | 157° |
| 2026-05-06 10:13 | 50.04950 | 8.35622 | 35208 ft | 427 kts | 157° |
| 2026-05-06 10:13 | 50.02284 | 8.37616 | 35370 ft | 427 kts | 157° |
| 2026-05-06 10:13 | 49.99595 | 8.39625 | 35535 ft | 428 kts | 157° |
| 2026-05-06 10:13 | 49.96929 | 8.41614 | 35688 ft | 428 kts | 157° |
| 2026-05-06 10:14 | 49.94227 | 8.43626 | 35835 ft | 429 kts | 157° |
| 2026-05-06 10:14 | 49.91575 | 8.45598 | 35975 ft | 430 kts | 157° |
| 2026-05-06 10:14 | 49.88854 | 8.47620 | 36119 ft | 430 kts | 157° |
| 2026-05-06 10:14 | 49.86164 | 8.49617 | 36262 ft | 431 kts | 157° |
| 2026-05-06 10:15 | 49.83451 | 8.51627 | 36404 ft | 431 kts | 157° |
| 2026-05-06 10:15 | 49.80750 | 8.53627 | 36547 ft | 431 kts | 157° |
| 2026-05-06 10:15 | 49.78051 | 8.55629 | 36667 ft | 432 kts | 157° |
| 2026-05-06 10:15 | 49.75350 | 8.57552 | 36776 ft | 432 kts | 159° |
| 2026-05-06 10:16 | 49.69755 | 8.60796 | 36790 ft | 430 kts | 165° |
| 2026-05-06 10:16 | 49.63997 | 8.63044 | 36795 ft | 428 kts | 171° |
| 2026-05-06 10:17 | 49.58143 | 8.64685 | 36799 ft | 427 kts | 172° |
| 2026-05-06 10:17 | 49.52320 | 8.66323 | 36804 ft | 427 kts | 172° |
| 2026-05-06 10:18 | 49.46536 | 8.68429 | 36805 ft | 428 kts | 167° |
| 2026-05-06 10:18 | 49.40947 | 8.71456 | 36804 ft | 431 kts | 161° |
| 2026-05-06 10:19 | 49.35412 | 8.74944 | 36799 ft | 430 kts | 161° |
| 2026-05-06 10:19 | 49.29904 | 8.78391 | 36799 ft | 430 kts | 161° |
| 2026-05-06 10:20 | 49.24379 | 8.81844 | 36798 ft | 430 kts | 161° |
| 2026-05-06 10:20 | 49.18869 | 8.85282 | 36791 ft | 429 kts | 161° |
| 2026-05-06 10:21 | 49.13335 | 8.88732 | 36789 ft | 429 kts | 162° |
| 2026-05-06 10:21 | 49.07839 | 8.92144 | 36798 ft | 428 kts | 161° |
| 2026-05-06 10:22 | 49.02351 | 8.95547 | 36798 ft | 427 kts | 162° |
| 2026-05-06 10:22 | 48.96840 | 8.98955 | 36797 ft | 428 kts | 162° |
| 2026-05-06 10:23 | 48.91346 | 9.02344 | 36789 ft | 427 kts | 162° |
| 2026-05-06 10:23 | 48.85856 | 9.05724 | 36792 ft | 427 kts | 162° |
| 2026-05-06 10:24 | 48.80386 | 9.09080 | 36793 ft | 426 kts | 162° |
| 2026-05-06 10:24 | 48.74886 | 9.12448 | 36805 ft | 425 kts | 162° |
| 2026-05-06 10:25 | 48.69397 | 9.15803 | 36811 ft | 426 kts | 162° |
| 2026-05-06 10:25 | 48.63932 | 9.19134 | 36807 ft | 426 kts | 162° |
| 2026-05-06 10:26 | 48.58448 | 9.22469 | 36811 ft | 425 kts | 162° |
| 2026-05-06 10:26 | 48.52980 | 9.25787 | 36625 ft | 425 kts | 162° |
| 2026-05-06 10:27 | 48.50238 | 9.27449 | 36726 ft | 426 kts | 162° |
| 2026-05-06 10:27 | 48.47523 | 9.29090 | 36770 ft | 427 kts | 162° |
| 2026-05-06 10:27 | 48.42006 | 9.32422 | 36793 ft | 427 kts | 162° |
| 2026-05-06 10:28 | 48.36532 | 9.35721 | 36798 ft | 426 kts | 162° |
| 2026-05-06 10:28 | 48.31034 | 9.39027 | 36808 ft | 424 kts | 162° |
| 2026-05-06 10:29 | 48.25600 | 9.42284 | 36812 ft | 424 kts | 163° |
| 2026-05-06 10:29 | 48.20131 | 9.45558 | 36802 ft | 424 kts | 163° |
| 2026-05-06 10:30 | 48.14659 | 9.48821 | 36810 ft | 424 kts | 163° |
| 2026-05-06 10:30 | 48.09208 | 9.52068 | 36803 ft | 424 kts | 163° |
| 2026-05-06 10:31 | 48.03835 | 9.55617 | 36805 ft | 427 kts | 158° |
| 2026-05-06 10:31 | 47.98651 | 9.60065 | 36808 ft | 431 kts | 152° |
| 2026-05-06 10:32 | 47.93747 | 9.65242 | 36805 ft | 434 kts | 150° |
| 2026-05-06 10:32 | 47.88856 | 9.70516 | 36813 ft | 434 kts | 150° |
| 2026-05-06 10:33 | 47.84003 | 9.75739 | 36811 ft | 434 kts | 150° |
| 2026-05-06 10:33 | 47.79125 | 9.80978 | 36815 ft | 434 kts | 150° |
| 2026-05-06 10:34 | 47.74228 | 9.86225 | 36815 ft | 434 kts | 150° |
| 2026-05-06 10:34 | 47.69350 | 9.91436 | 36812 ft | 434 kts | 150° |
| 2026-05-06 10:35 | 47.64467 | 9.96646 | 36820 ft | 433 kts | 150° |
| 2026-05-06 10:35 | 47.59583 | 10.01843 | 36821 ft | 433 kts | 150° |
| 2026-05-06 10:36 | 47.54711 | 10.07012 | 36824 ft | 434 kts | 150° |
| 2026-05-06 10:36 | 47.49841 | 10.12171 | 36821 ft | 434 kts | 150° |
| 2026-05-06 10:37 | 47.44913 | 10.17367 | 36835 ft | 434 kts | 151° |
| 2026-05-06 10:37 | 47.39874 | 10.22104 | 36838 ft | 431 kts | 154° |
| 2026-05-06 10:38 | 47.34781 | 10.26760 | 36841 ft | 431 kts | 154° |
| 2026-05-06 10:38 | 47.29705 | 10.31369 | 36861 ft | 432 kts | 154° |
| 2026-05-06 10:39 | 47.24596 | 10.35968 | 36864 ft | 431 kts | 154° |
| 2026-05-06 10:39 | 47.19479 | 10.40565 | 36858 ft | 432 kts | 155° |
| 2026-05-06 10:40 | 47.14364 | 10.45149 | 36866 ft | 432 kts | 155° |
| 2026-05-06 10:40 | 47.09235 | 10.49629 | 36862 ft | 429 kts | 158° |
| 2026-05-06 10:41 | 47.03901 | 10.53359 | 36869 ft | 425 kts | 164° |
| 2026-05-06 10:41 | 46.98346 | 10.56204 | 36887 ft | 421 kts | 168° |
| 2026-05-06 10:42 | 46.92800 | 10.58718 | 36892 ft | 419 kts | 168° |
| 2026-05-06 10:42 | 46.87208 | 10.61250 | 36887 ft | 420 kts | 169° |
| 2026-05-06 10:43 | 46.81645 | 10.63756 | 36892 ft | 420 kts | 169° |
| 2026-05-06 10:44 | 46.73315 | 10.67475 | 36891 ft | 417 kts | 171° |
| 2026-05-06 10:44 | 46.67711 | 10.69428 | 36886 ft | 414 kts | 174° |
| 2026-05-06 10:45 | 46.62104 | 10.71273 | 36890 ft | 413 kts | 174° |
| 2026-05-06 10:45 | 46.56540 | 10.73099 | 36896 ft | 413 kts | 174° |
| 2026-05-06 10:45 | 46.53724 | 10.74016 | 36769 ft | 414 kts | 174° |
| 2026-05-06 10:46 | 46.50930 | 10.74928 | 36523 ft | 410 kts | 174° |
| 2026-05-06 10:46 | 46.48161 | 10.75834 | 36294 ft | 407 kts | 174° |
| 2026-05-06 10:46 | 46.45416 | 10.76731 | 36058 ft | 403 kts | 174° |
| 2026-05-06 10:46 | 46.42709 | 10.77611 | 35646 ft | 402 kts | 175° |
| 2026-05-06 10:47 | 46.39986 | 10.78495 | 35097 ft | 403 kts | 175° |
| 2026-05-06 10:47 | 46.37247 | 10.79379 | 34484 ft | 404 kts | 175° |
| 2026-05-06 10:47 | 46.34546 | 10.80249 | 33770 ft | 404 kts | 176° |
| 2026-05-06 10:47 | 46.31794 | 10.81134 | 33086 ft | 404 kts | 175° |
| 2026-05-06 10:48 | 46.29049 | 10.82015 | 32392 ft | 404 kts | 175° |
| 2026-05-06 10:48 | 46.26345 | 10.82886 | 31673 ft | 405 kts | 175° |
| 2026-05-06 10:48 | 46.23608 | 10.83767 | 30939 ft | 405 kts | 175° |
| 2026-05-06 10:48 | 46.20866 | 10.84653 | 30371 ft | 401 kts | 175° |
| 2026-05-06 10:49 | 46.18178 | 10.85522 | 29892 ft | 396 kts | 174° |
| 2026-05-06 10:49 | 46.15512 | 10.86385 | 29413 ft | 391 kts | 175° |
| 2026-05-06 10:49 | 46.12891 | 10.87234 | 28931 ft | 386 kts | 175° |
| 2026-05-06 10:49 | 46.10273 | 10.88073 | 28451 ft | 382 kts | 175° |
| 2026-05-06 10:50 | 46.07692 | 10.88900 | 27968 ft | 378 kts | 175° |
| 2026-05-06 10:50 | 46.05152 | 10.89714 | 27480 ft | 375 kts | 174° |
| 2026-05-06 10:50 | 46.02620 | 10.90522 | 26695 ft | 378 kts | 174° |
| 2026-05-06 10:50 | 46.00029 | 10.91343 | 25644 ft | 387 kts | 174° |
| 2026-05-06 10:51 | 45.97420 | 10.92172 | 24811 ft | 389 kts | 174° |
| 2026-05-06 10:51 | 45.94793 | 10.93012 | 24197 ft | 386 kts | 174° |
| 2026-05-06 10:51 | 45.92189 | 10.93847 | 23661 ft | 382 kts | 173° |
| 2026-05-06 10:51 | 45.89608 | 10.94672 | 23072 ft | 379 kts | 173° |
| 2026-05-06 10:52 | 45.87046 | 10.95487 | 22510 ft | 376 kts | 173° |
| 2026-05-06 10:52 | 45.84531 | 10.96285 | 21970 ft | 373 kts | 173° |
| 2026-05-06 10:52 | 45.82002 | 10.97090 | 21415 ft | 370 kts | 173° |
| 2026-05-06 10:52 | 45.79512 | 10.97879 | 20866 ft | 368 kts | 172° |
| 2026-05-06 10:53 | 45.77024 | 10.98669 | 20324 ft | 365 kts | 172° |
| 2026-05-06 10:53 | 45.74580 | 10.99441 | 19785 ft | 362 kts | 172° |
| 2026-05-06 10:53 | 45.72145 | 11.00211 | 19245 ft | 359 kts | 171° |
| 2026-05-06 10:53 | 45.69698 | 11.00989 | 18704 ft | 356 kts | 171° |
| 2026-05-06 10:54 | 45.67293 | 11.01756 | 18168 ft | 354 kts | 169° |
| 2026-05-06 10:54 | 45.65030 | 11.03087 | 17568 ft | 362 kts | 152° |
| 2026-05-06 10:54 | 45.63156 | 11.05541 | 16999 ft | 370 kts | 133° |
| 2026-05-06 10:54 | 45.61741 | 11.08593 | 16484 ft | 371 kts | 128° |
| 2026-05-06 10:55 | 45.60382 | 11.11653 | 15968 ft | 368 kts | 127° |
| 2026-05-06 10:55 | 45.59014 | 11.14724 | 15568 ft | 362 kts | 127° |
| 2026-05-06 10:55 | 45.57686 | 11.17699 | 15150 ft | 357 kts | 127° |
| 2026-05-06 10:55 | 45.56350 | 11.20674 | 14623 ft | 356 kts | 128° |
| 2026-05-06 10:56 | 45.55027 | 11.23614 | 14104 ft | 354 kts | 127° |
| 2026-05-06 10:56 | 45.53706 | 11.26547 | 13608 ft | 352 kts | 127° |
| 2026-05-06 10:56 | 45.52388 | 11.29470 | 13104 ft | 350 kts | 127° |
| 2026-05-06 10:56 | 45.51088 | 11.32350 | 12613 ft | 347 kts | 127° |
| 2026-05-06 10:57 | 45.49793 | 11.35221 | 12145 ft | 345 kts | 127° |
| 2026-05-06 10:57 | 45.48490 | 11.38098 | 11655 ft | 342 kts | 127° |
| 2026-05-06 10:57 | 45.47213 | 11.40918 | 11170 ft | 340 kts | 127° |
| 2026-05-06 10:57 | 45.45945 | 11.43718 | 10702 ft | 337 kts | 127° |
| 2026-05-06 10:58 | 45.44691 | 11.46480 | 10407 ft | 329 kts | 127° |
| 2026-05-06 10:58 | 45.43478 | 11.49179 | 10208 ft | 318 kts | 125° |
| 2026-05-06 10:58 | 45.42452 | 11.51928 | 10012 ft | 310 kts | 118° |
| 2026-05-06 10:58 | 45.41649 | 11.54711 | 9825 ft | 301 kts | 115° |
| 2026-05-06 10:59 | 45.40919 | 11.57452 | 9613 ft | 293 kts | 114° |
| 2026-05-06 10:59 | 45.40208 | 11.60142 | 9255 ft | 290 kts | 114° |
| 2026-05-06 10:59 | 45.39499 | 11.62814 | 8893 ft | 289 kts | 114° |
| 2026-05-06 10:59 | 45.38788 | 11.65481 | 8521 ft | 287 kts | 115° |
| 2026-05-06 11:00 | 45.38090 | 11.68097 | 8149 ft | 285 kts | 115° |
| 2026-05-06 11:00 | 45.37387 | 11.70728 | 7758 ft | 283 kts | 115° |
| 2026-05-06 11:00 | 45.36692 | 11.73323 | 7411 ft | 280 kts | 114° |
| 2026-05-06 11:00 | 45.36001 | 11.75899 | 7011 ft | 279 kts | 115° |
| 2026-05-06 11:01 | 45.35318 | 11.78431 | 6651 ft | 277 kts | 114° |
| 2026-05-06 11:01 | 45.34629 | 11.80968 | 6301 ft | 275 kts | 113° |
| 2026-05-06 11:01 | 45.33941 | 11.83509 | 5954 ft | 272 kts | 112° |
| 2026-05-06 11:01 | 45.33284 | 11.85983 | 5609 ft | 270 kts | 108° |
| 2026-05-06 11:02 | 45.33013 | 11.88561 | 5340 ft | 263 kts | 91° |
| 2026-05-06 11:02 | 45.33052 | 11.91132 | 5127 ft | 255 kts | 88° |
| 2026-05-06 11:02 | 45.33115 | 11.93594 | 4924 ft | 248 kts | 88° |
| 2026-05-06 11:02 | 45.33149 | 11.96000 | 4720 ft | 241 kts | 89° |
| 2026-05-06 11:03 | 45.33156 | 11.98366 | 4514 ft | 234 kts | 90° |
| 2026-05-06 11:03 | 45.33145 | 12.00647 | 4316 ft | 233 kts | 90° |
| 2026-05-06 11:03 | 45.33124 | 12.02962 | 4115 ft | 233 kts | 90° |
| 2026-05-06 11:03 | 45.33100 | 12.05258 | 3915 ft | 233 kts | 91° |
| 2026-05-06 11:04 | 45.33130 | 12.07531 | 3714 ft | 232 kts | 86° |
| 2026-05-06 11:04 | 45.33280 | 12.09787 | 3503 ft | 227 kts | 79° |
| 2026-05-06 11:04 | 45.33692 | 12.11929 | 3293 ft | 221 kts | 71° |
| 2026-05-06 11:04 | 45.34323 | 12.13866 | 3083 ft | 215 kts | 57° |
| 2026-05-06 11:05 | 45.35249 | 12.15540 | 3012 ft | 215 kts | 46° |
| 2026-05-06 11:05 | 45.36330 | 12.17000 | 3015 ft | 216 kts | 41° |
| 2026-05-06 11:05 | 45.37455 | 12.18386 | 3043 ft | 207 kts | 40° |
| 2026-05-06 11:05 | 45.38497 | 12.19683 | 2930 ft | 195 kts | 41° |
| 2026-05-06 11:06 | 45.39496 | 12.20956 | 2654 ft | 189 kts | 42° |
| 2026-05-06 11:06 | 45.40447 | 12.22184 | 2395 ft | 186 kts | 42° |
| 2026-05-06 11:06 | 45.41404 | 12.23427 | 2144 ft | 186 kts | 42° |
| 2026-05-06 11:06 | 45.42348 | 12.24651 | 1892 ft | 181 kts | 42° |
| 2026-05-06 11:07 | 45.43253 | 12.25821 | 1630 ft | 168 kts | 42° |
| 2026-05-06 11:07 | 45.44073 | 12.26881 | 1432 ft | 155 kts | 42° |
| 2026-05-06 11:07 | 45.44876 | 12.27917 | 1239 ft | 153 kts | 42° |
| 2026-05-06 11:07 | 45.45627 | 12.28885 | 1024 ft | 141 kts | 43° |
| 2026-05-06 11:08 | 45.46359 | 12.29821 | 807 ft | 142 kts | 42° |
| 2026-05-06 11:08 | 45.47090 | 12.30752 | 632 ft | 140 kts | 43° |
| 2026-05-06 11:08 | 45.47809 | 12.31680 | 467 ft | 140 kts | 43° |
| 2026-05-06 11:08 | 45.48538 | 12.32629 | 279 ft | 140 kts | 44° |
| 2026-05-06 11:09 | 45.49242 | 12.33552 | 94 ft | 136 kts | 44° |
| 2026-05-06 11:09 | 45.49920 | 12.34427 | 9 ft | 117 kts | 41° |
| 2026-05-06 11:09 | 45.50399 | 12.35043 | 9 ft | 72 kts | 43° |
| 2026-05-06 11:09 | 45.50645 | 12.35349 | 11 ft | 22 kts | 30° |
| 2026-05-06 11:10 | 45.50788 | 12.35414 | 12 ft | 21 kts | 10° |
| 2026-05-06 11:10 | 45.50897 | 12.35422 | 12 ft | 11 kts | 316° |
| 2026-05-06 11:10 | 45.50882 | 12.35319 | 11 ft | 1 kts | 229° |